Etusivu
METAR-TAF:

METAR-TAF

Lentoasemat :

Kytheran lentoasema

Kythera, Kreikka

Leveyspiiri: 36-17-21N, Pituuspiiri: 023-01-24E, korkeus merenpinnasta: 321 m

Tämänhetkinen sää

Tämä raportti tehtiin 7 tuntia ja 6 minuuttia sitten, kello 18.50 UTC
Tuuli 4 kn luoteesta
Lämpötila 27°C
Kosteus 48%
Ilmanpaine 1016 hPa
Näkyvyys 10 km tai enemmän
ei pilviä alle 1500 m:ssä eikä cumulonimbus-pilviä

METAR: LGKC 181850Z 32004KT CAVOK 27/15 Q1016

Aika: 04:56 (01:56 UTC)

Sääennuste

Tämä raportti tehtiin 2 tuntia ja 56 minuuttia sitten, kello 23.00 UTC
Ennuste voimassa 19. päivästä klo 00 UTC - 19. päivään klo 09 UTC
Tuuli 10 kn pohjoisesta
Näkyvyys 10 km tai enemmän
ei pilviä alle 1500 m:ssä eikä cumulonimbus-pilviä
Tulossa
19. päivästä klo 02 UTC - 19. päivään klo 04 UTC
Tuuli 17 kn pohjoisesta/koillisesta puuskistuen 27 kn:hen

TAF: LGKC 182300Z 1900/1909 36010KT CAVOK BECMG 1902/1904 02017G27KT

Säähavainnot ja -ennusteet yli 4000 lentoasemalta (METAR- ja TAF-raportit).

Käytössä olevat sääasemat on merkitty karttaan keltaisilla ja punaisilla pisteillä.

Aseta hiiri pisteen päälle nähdäksesi sääaseman nimen.

Klikkaa sitten nähdäksesi säähavainnot ja -ennusteet.

Kartan vaihtaminen: klikkaa mustalla rastilla varustettuja vihreitä pisteitä, niin voit zoomata sisään; viivalla varustettua vihreää pistettä, niin voit zoomata ulos tai vihreitä nuolia, niin pääset viereisille kartoille.


METAR-TAF: